Stella Polaris — PEBD — position and weather

sailwx.info

Track history (hours):
 
Tides and Currents Weather Stations Pressure Air Temp Water Temp Dewpoint Dewpoint Depression Visibility Wind Speed Wind Dir Waves Ship Positions

Stella Polaris

Last reported at 2017-Feb-19 11:17 UTC. Time now 2017-Feb-28 10:04 UTC.
Position N 57°06' E 011°38'.
Warning: this ship's position is 8 days out of date.

Length 117 m; draft 5.2 m.

Type: Ship (hazmat cat A). MMSI: 245911000.

Date/timePositionNaut miles runAvg speedWind from/ knotsBaromVisibWave heightAir tempDewpointWater temp
2017-Feb-19 11:17N 57°06' E 011°38'1013.9
2017-Feb-19 10:33N 57°16' E 011°32'1413.8
2017-Feb-19 09:33N 57°29' E 011°22'1413.7
2017-Feb-19 08:33N 57°38' E 011°03'1413.5
2017-Feb-19 07:34N 57°47' E 010°45'10114.1
2017-Feb-19 00:23N 57°42' E 007°35'1213.9
2017-Feb-18 23:33N 57°42' E 007°14'2814.0
2017-Feb-18 21:33N 57°44' E 006°21'29514.1
2017-Feb-18 00:33N 58°42' W 002°49'1716.7
2017-Feb-17 23:30N 58°43' W 003°22'1414.6
2017-Feb-17 22:33N 58°43' W 003°49'  
Track history (hours):
 
Tides and Currents Weather Stations Pressure Air Temp Water Temp Dewpoint Dewpoint Depression Visibility Wind Speed Wind Dir Waves Ship Positions

Stella Polaris

Last reported at 2017-Feb-19 11:17 UTC. Time now 2017-Feb-28 10:04 UTC.
Position N 57°06' E 011°38'.
Warning: this ship's position is 8 days out of date.

Length 117 m; draft 5.2 m.

Type: Ship (hazmat cat A). MMSI: 245911000.

Date/timePositionNaut miles runAvg speedWind from/ knotsBaromVisibWave heightAir tempDewpointWater temp
2017-Feb-19 11:17N 57°06' E 011°38'1013.9
2017-Feb-19 10:33N 57°16' E 011°32'1413.8
2017-Feb-19 09:33N 57°29' E 011°22'1413.7
2017-Feb-19 08:33N 57°38' E 011°03'1413.5
2017-Feb-19 07:34N 57°47' E 010°45'10114.1
2017-Feb-19 00:23N 57°42' E 007°35'1213.9
2017-Feb-18 23:33N 57°42' E 007°14'2814.0
2017-Feb-18 21:33N 57°44' E 006°21'29514.1
2017-Feb-18 00:33N 58°42' W 002°49'1716.7
2017-Feb-17 23:30N 58°43' W 003°22'1414.6
2017-Feb-17 22:33N 58°43' W 003°49'  

Dump ship's entire track history